createdAt,value
2023-05-21T00:02:09.057Z,18.79
2023-05-21T00:04:36.152Z,18.77
2023-05-21T00:07:03.153Z,18.76
2023-05-21T00:09:30.083Z,18.76
2023-05-21T00:11:57.018Z,18.76
2023-05-21T00:14:24.132Z,18.77
2023-05-21T00:16:51.094Z,18.75
2023-05-21T00:19:19.546Z,18.74
2023-05-21T00:21:46.537Z,18.72
2023-05-21T00:24:13.408Z,18.53
2023-05-21T00:26:40.510Z,18.49
2023-05-21T00:29:07.383Z,18.49
2023-05-21T00:31:36.011Z,18.46
2023-05-21T00:34:03.480Z,18.47
2023-05-21T00:36:31.951Z,18.46
2023-05-21T00:38:58.855Z,18.49
2023-05-21T00:41:25.985Z,18.52
2023-05-21T00:43:52.935Z,18.52
2023-05-21T00:46:22.851Z,18.50
2023-05-21T00:48:52.069Z,18.39
2023-05-21T00:51:19.536Z,18.34
2023-05-21T00:53:51.320Z,18.32
2023-05-21T00:56:19.608Z,18.30
2023-05-21T00:58:46.624Z,18.26
2023-05-21T01:01:14.142Z,18.25
2023-05-21T01:03:43.243Z,18.26
2023-05-21T01:06:11.563Z,18.24
2023-05-21T01:08:40.045Z,18.15
2023-05-21T01:11:10.980Z,18.12
2023-05-21T01:13:41.983Z,18.05
2023-05-21T01:16:10.336Z,18.03
2023-05-21T01:18:38.424Z,18.09
2023-05-21T01:21:06.280Z,18.12
2023-05-21T01:23:35.110Z,18.12
2023-05-21T01:26:02.221Z,18.12
2023-05-21T01:28:29.224Z,18.10
2023-05-21T01:31:04.844Z,18.09
2023-05-21T01:33:41.364Z,18.07
2023-05-21T01:36:17.082Z,18.09
2023-05-21T01:38:56.755Z,18.08
2023-05-21T01:41:29.540Z,18.08
2023-05-21T01:43:57.372Z,17.98
2023-05-21T01:46:30.607Z,17.96
2023-05-21T01:48:58.122Z,17.91
2023-05-21T01:51:27.160Z,17.90
2023-05-21T01:53:55.455Z,17.90
2023-05-21T01:56:22.373Z,17.93
2023-05-21T01:58:49.310Z,17.92
2023-05-21T02:05:47.832Z,17.81
2023-05-21T02:08:15.582Z,17.80
2023-05-21T02:10:44.141Z,17.80
2023-05-21T02:13:11.407Z,17.80
2023-05-21T02:15:38.442Z,17.81
2023-05-21T02:18:05.877Z,17.76
2023-05-21T02:20:33.465Z,17.75
2023-05-21T02:23:00.534Z,17.75
2023-05-21T02:25:27.408Z,17.76
2023-05-21T02:27:55.943Z,17.76
2023-05-21T02:30:22.851Z,17.78
2023-05-21T02:32:49.718Z,17.76
2023-05-21T02:35:16.775Z,17.67
2023-05-21T02:37:44.364Z,17.59
2023-05-21T02:40:12.760Z,17.54
2023-05-21T02:42:40.679Z,17.52
2023-05-21T02:45:12.950Z,17.49
2023-05-21T02:47:42.084Z,17.51
2023-05-21T02:50:09.951Z,17.51
2023-05-21T02:52:44.210Z,17.49
2023-05-21T02:55:11.196Z,17.46
2023-05-21T02:57:38.219Z,17.42
2023-05-21T03:00:07.054Z,17.40
2023-05-21T03:02:36.145Z,17.35
2023-05-21T03:05:03.382Z,17.32
2023-05-21T03:07:50.926Z,17.25
2023-05-21T03:10:25.799Z,17.19
2023-05-21T03:12:53.090Z,17.20
2023-05-21T03:15:21.237Z,17.21
2023-05-21T03:17:49.628Z,17.20
2023-05-21T03:20:16.800Z,17.19
2023-05-21T03:22:44.260Z,17.14
2023-05-21T03:25:11.365Z,17.14
2023-05-21T03:27:39.782Z,17.12
2023-05-21T03:30:53.901Z,16.97
2023-05-21T03:33:54.807Z,16.74
2023-05-21T03:36:25.089Z,16.58
2023-05-21T03:38:52.420Z,16.47
2023-05-21T03:41:20.549Z,16.43
2023-05-21T03:43:51.846Z,16.42
2023-05-21T03:46:21.344Z,16.38
2023-05-21T03:49:16.727Z,16.38
2023-05-21T03:51:43.878Z,16.41
2023-05-21T03:54:14.676Z,16.45
2023-05-21T03:56:41.720Z,16.47
2023-05-21T03:59:09.272Z,16.48
2023-05-21T04:01:36.708Z,16.45
2023-05-21T04:04:05.432Z,16.41
2023-05-21T04:06:34.799Z,16.36
2023-05-21T04:09:01.740Z,16.37
2023-05-21T04:11:29.914Z,16.39
2023-05-21T04:13:57.133Z,16.39
2023-05-21T04:16:24.932Z,16.43
2023-05-21T04:18:53.495Z,16.49
2023-05-21T04:21:21.027Z,16.55
2023-05-21T04:23:49.464Z,16.59
2023-05-21T04:26:30.259Z,16.64
2023-05-21T04:28:58.775Z,16.65
2023-05-21T04:31:25.959Z,16.64
2023-05-21T04:34:14.148Z,16.70
2023-05-21T04:36:41.947Z,16.74
2023-05-21T04:39:11.139Z,16.78
2023-05-21T04:41:38.655Z,16.74
2023-05-21T04:44:07.739Z,16.67
2023-05-21T04:46:35.641Z,16.56
2023-05-21T04:49:02.810Z,16.51
2023-05-21T04:51:30.129Z,16.38
2023-05-21T04:53:57.534Z,16.35
2023-05-21T04:56:26.057Z,16.38
2023-05-21T04:58:53.599Z,16.40
2023-05-21T05:01:21.476Z,16.37
2023-05-21T05:03:49.655Z,16.04
2023-05-21T05:06:17.113Z,16.05
2023-05-21T05:08:45.339Z,16.09
2023-05-21T05:11:12.360Z,16.05
2023-05-21T05:13:41.315Z,16.20
2023-05-21T05:16:08.950Z,16.34
2023-05-21T05:18:36.825Z,16.34
2023-05-21T05:21:04.185Z,16.47
2023-05-21T05:23:31.912Z,16.57
2023-05-21T05:25:58.923Z,16.66
2023-05-21T05:28:26.003Z,16.77
2023-05-21T05:30:54.511Z,16.92
2023-05-21T05:33:24.666Z,17.05
2023-05-21T05:35:51.594Z,17.17
2023-05-21T05:38:18.545Z,17.34
2023-05-21T05:40:45.668Z,17.45
2023-05-21T05:43:12.841Z,17.65
2023-05-21T05:45:40.179Z,17.85
2023-05-21T05:48:14.012Z,18.02
2023-05-21T05:50:42.209Z,18.18
2023-05-21T05:53:10.489Z,18.37
2023-05-21T05:55:37.929Z,18.51
2023-05-21T05:58:05.682Z,18.54
2023-05-21T06:00:38.854Z,18.74
2023-05-21T06:03:05.970Z,18.92
2023-05-21T06:05:35.370Z,19.00
2023-05-21T06:08:02.552Z,19.17
2023-05-21T06:10:30.600Z,19.07
2023-05-21T06:12:57.606Z,19.23
2023-05-21T06:15:24.550Z,19.11
2023-05-21T06:17:52.440Z,19.08
2023-05-21T06:20:19.759Z,19.24
2023-05-21T06:22:48.205Z,19.31
2023-05-21T06:25:16.130Z,19.45
2023-05-21T06:27:43.512Z,19.60
2023-05-21T06:30:18.112Z,19.78
2023-05-21T06:32:45.453Z,19.82
2023-05-21T06:35:12.572Z,20.01
2023-05-21T06:37:39.393Z,20.24
2023-05-21T06:40:10.130Z,20.51
2023-05-21T06:42:37.753Z,20.81
2023-05-21T06:45:36.658Z,21.14
2023-05-21T06:48:18.963Z,21.35
2023-05-21T06:50:48.063Z,21.56
2023-05-21T06:53:15.007Z,22.00
2023-05-21T06:55:43.727Z,22.31
2023-05-21T06:58:21.313Z,22.87
2023-05-21T07:00:49.035Z,23.50
2023-05-21T07:03:16.259Z,23.91
2023-05-21T07:05:43.351Z,24.49
2023-05-21T07:08:12.002Z,24.85
2023-05-21T07:10:39.532Z,25.03
2023-05-21T07:13:08.280Z,25.51
2023-05-21T07:15:38.009Z,25.73
2023-05-21T07:18:05.148Z,24.98
2023-05-21T07:20:32.098Z,24.48
2023-05-21T07:23:02.562Z,24.10
2023-05-21T07:25:30.579Z,24.40
2023-05-21T07:27:57.783Z,24.18
2023-05-21T07:30:29.749Z,23.23
2023-05-21T07:32:57.801Z,23.45
2023-05-21T07:35:25.097Z,24.04
2023-05-21T07:37:52.101Z,24.47
2023-05-21T07:40:19.274Z,24.83
2023-05-21T07:42:47.492Z,25.31
2023-05-21T07:45:17.549Z,25.54
2023-05-21T07:47:46.583Z,25.80
2023-05-21T07:50:14.815Z,26.06
2023-05-21T07:52:42.465Z,26.16
2023-05-21T07:55:09.953Z,26.18
2023-05-21T07:57:39.422Z,26.31
2023-05-21T08:00:11.836Z,26.35
2023-05-21T08:02:54.200Z,26.29
2023-05-21T08:05:21.467Z,26.16
2023-05-21T08:07:49.377Z,26.25
2023-05-21T08:10:19.151Z,25.05
2023-05-21T08:12:49.296Z,25.31
2023-05-21T08:15:16.487Z,25.78
2023-05-21T08:17:46.591Z,26.09
2023-05-21T08:20:15.505Z,25.67
2023-05-21T08:22:44.432Z,24.58
2023-05-21T08:25:12.174Z,24.19
2023-05-21T08:27:39.246Z,24.89
2023-05-21T08:30:08.481Z,25.20
2023-05-21T08:32:38.626Z,25.19
2023-05-21T08:35:07.287Z,24.36
2023-05-21T08:38:27.041Z,24.98
2023-05-21T08:41:00.923Z,25.39
2023-05-21T08:43:30.154Z,25.61
2023-05-21T08:46:03.480Z,25.72
2023-05-21T08:48:35.030Z,25.97
2023-05-21T08:51:02.499Z,26.04
2023-05-21T08:53:34.774Z,25.92
2023-05-21T08:56:06.609Z,24.82
2023-05-21T08:58:49.582Z,24.43
2023-05-21T09:01:23.412Z,24.37
2023-05-21T09:04:04.875Z,24.28
2023-05-21T09:06:36.416Z,24.40
2023-05-21T09:09:15.505Z,24.47
2023-05-21T09:11:47.924Z,24.75
2023-05-21T09:14:15.159Z,25.26
2023-05-21T09:16:59.076Z,25.71
2023-05-21T09:19:26.924Z,26.07
2023-05-21T09:21:54.299Z,25.92
2023-05-21T09:24:31.499Z,24.56
2023-05-21T09:26:59.268Z,24.93
2023-05-21T09:29:27.076Z,25.01
2023-05-21T09:31:54.792Z,25.71
2023-05-21T09:34:25.229Z,24.97
2023-05-21T09:36:56.623Z,25.08
2023-05-21T09:39:30.997Z,24.88
2023-05-21T09:42:03.018Z,24.75
2023-05-21T09:44:30.297Z,25.23
2023-05-21T09:46:58.149Z,25.50
2023-05-21T09:49:26.755Z,25.65
2023-05-21T09:51:56.088Z,25.47
2023-05-21T09:54:23.338Z,25.02
2023-05-21T09:56:53.657Z,24.80
2023-05-21T09:59:22.280Z,25.58
2023-05-21T10:01:51.831Z,25.94
2023-05-21T10:04:21.680Z,25.55
2023-05-21T10:06:50.774Z,26.20
2023-05-21T10:09:20.566Z,26.71
2023-05-21T10:11:54.375Z,27.06
2023-05-21T10:14:27.586Z,26.55
2023-05-21T10:16:55.778Z,26.36
2023-05-21T10:19:24.992Z,26.70
2023-05-21T10:21:54.038Z,27.37
2023-05-21T10:24:23.367Z,27.76
2023-05-21T10:26:51.639Z,28.17
2023-05-21T10:29:23.028Z,28.15
2023-05-21T10:31:53.682Z,27.19
2023-05-21T10:34:23.589Z,26.35
2023-05-21T10:36:54.625Z,27.30
2023-05-21T10:39:25.327Z,28.13
2023-05-21T10:42:18.646Z,28.67
2023-05-21T10:45:11.920Z,29.35
2023-05-21T10:48:05.389Z,27.77
2023-05-21T10:51:07.180Z,28.41
2023-05-21T10:53:54.675Z,28.49
2023-05-21T10:56:28.558Z,28.91
2023-05-21T10:59:14.841Z,29.32
2023-05-21T11:01:43.964Z,29.28
2023-05-21T11:04:12.012Z,29.28
2023-05-21T11:06:40.668Z,29.14
2023-05-21T11:09:15.158Z,29.32
2023-05-21T11:11:44.921Z,29.41
2023-05-21T11:14:30.755Z,29.43
2023-05-21T11:16:59.611Z,29.27
2023-05-21T11:19:36.166Z,29.05
2023-05-21T11:22:21.356Z,28.69
2023-05-21T11:24:51.993Z,28.53
2023-05-21T11:27:33.708Z,28.67
2023-05-21T11:30:05.240Z,28.94
2023-05-21T11:32:37.862Z,29.19
2023-05-21T11:35:06.236Z,29.39
2023-05-21T11:37:35.529Z,29.38
2023-05-21T11:40:26.957Z,29.33
2023-05-21T11:42:55.938Z,29.48
2023-05-21T11:45:27.910Z,29.41
2023-05-21T11:47:57.187Z,29.45
2023-05-21T11:50:25.768Z,29.61
2023-05-21T11:52:52.757Z,29.77
2023-05-21T11:55:24.788Z,29.98
2023-05-21T11:57:54.188Z,29.94
2023-05-21T12:00:21.356Z,30.04
2023-05-21T12:02:52.354Z,29.68
2023-05-21T12:05:20.994Z,29.59
2023-05-21T12:07:49.529Z,29.37
2023-05-21T12:10:20.404Z,28.97
2023-05-21T12:12:54.944Z,29.17
2023-05-21T12:15:24.590Z,29.22
2023-05-21T12:17:53.222Z,29.03
2023-05-21T12:20:22.465Z,29.14
2023-05-21T12:22:50.316Z,29.05
2023-05-21T12:25:19.181Z,29.01
2023-05-21T12:27:48.771Z,29.13
2023-05-21T12:33:12.809Z,29.10
2023-05-21T12:35:41.178Z,28.93
2023-05-21T12:38:08.779Z,28.99
2023-05-21T12:40:37.979Z,28.98
2023-05-21T12:43:06.499Z,29.02
2023-05-21T12:45:34.361Z,28.92
2023-05-21T12:48:03.368Z,28.84
2023-05-21T12:50:30.536Z,28.78
2023-05-21T12:52:59.064Z,28.25
2023-05-21T12:55:26.006Z,28.01
2023-05-21T12:58:02.742Z,28.25
2023-05-21T13:00:31.924Z,28.29
2023-05-21T13:03:00.367Z,28.42
2023-05-21T13:05:27.542Z,28.55
2023-05-21T13:07:54.845Z,28.75
2023-05-21T13:10:23.198Z,28.73
2023-05-21T13:12:51.271Z,28.96
2023-05-21T13:15:19.119Z,29.04
2023-05-21T13:17:49.157Z,28.92
2023-05-21T13:20:20.049Z,28.96
2023-05-21T13:22:49.224Z,28.21
2023-05-21T13:25:18.964Z,27.65
2023-05-21T13:27:49.300Z,27.80
2023-05-21T13:33:29.703Z,27.03
2023-05-21T13:35:56.733Z,27.05
2023-05-21T13:38:23.633Z,26.48
2023-05-21T13:40:51.537Z,26.07
2023-05-21T13:43:19.864Z,26.33
2023-05-21T13:45:49.603Z,26.73
2023-05-21T13:48:18.378Z,26.91
2023-05-21T13:50:45.815Z,27.29
2023-05-21T13:53:12.992Z,27.35
2023-05-21T13:55:40.775Z,27.49
2023-05-21T13:58:10.930Z,27.70
2023-05-21T14:00:40.931Z,27.68
2023-05-21T14:03:08.369Z,27.43
2023-05-21T14:05:35.385Z,27.18
2023-05-21T14:08:02.394Z,26.83
2023-05-21T14:10:29.859Z,26.71
2023-05-21T14:13:01.693Z,26.63
2023-05-21T14:15:41.260Z,26.74
2023-05-21T14:18:11.552Z,26.97
2023-05-21T14:20:39.472Z,27.00
2023-05-21T14:23:06.688Z,27.39
2023-05-21T14:25:35.719Z,27.64
2023-05-21T14:28:03.232Z,27.84
2023-05-21T14:30:53.345Z,28.03
2023-05-21T14:33:21.802Z,28.21
2023-05-21T14:35:49.183Z,28.30
2023-05-21T14:38:16.886Z,28.36
2023-05-21T14:40:44.388Z,28.21
2023-05-21T14:43:11.698Z,27.83
2023-05-21T14:45:38.916Z,27.40
2023-05-21T14:48:07.684Z,27.44
2023-05-21T14:50:36.457Z,27.16
2023-05-21T14:53:07.726Z,27.15
2023-05-21T14:55:37.326Z,27.30
2023-05-21T14:58:05.910Z,27.25
2023-05-21T15:00:41.505Z,27.52
2023-05-21T15:04:07.291Z,27.33
2023-05-21T15:06:40.341Z,27.42
2023-05-21T15:09:12.271Z,27.60
2023-05-21T15:11:40.692Z,27.74
2023-05-21T15:14:46.837Z,27.62
2023-05-21T15:17:53.200Z,27.24
2023-05-21T15:20:22.488Z,27.26
2023-05-21T15:22:49.604Z,27.00
2023-05-21T15:25:19.333Z,27.23
2023-05-21T15:27:56.142Z,27.06
2023-05-21T15:33:09.114Z,26.91
2023-05-21T15:35:38.126Z,26.54
2023-05-21T15:38:05.536Z,26.47
2023-05-21T15:40:32.735Z,26.12
2023-05-21T15:42:59.991Z,25.96
2023-05-21T15:45:29.674Z,25.96
2023-05-21T15:47:58.549Z,25.82
2023-05-21T15:50:25.621Z,25.78
2023-05-21T15:52:53.945Z,25.71
2023-05-21T15:55:21.192Z,25.81
2023-05-21T15:57:50.622Z,25.71
2023-05-21T16:00:18.175Z,25.76
2023-05-21T16:02:45.126Z,25.83
2023-05-21T16:05:12.219Z,25.65
2023-05-21T16:07:40.178Z,25.76
2023-05-21T16:10:10.592Z,25.77
2023-05-21T16:12:38.148Z,25.85
2023-05-21T16:15:06.797Z,25.92
2023-05-21T16:17:33.880Z,25.95
2023-05-21T16:20:01.858Z,25.74
2023-05-21T16:22:31.291Z,25.69
2023-05-21T16:24:59.842Z,25.72
2023-05-21T16:27:28.226Z,25.83
2023-05-21T16:29:55.169Z,25.77
2023-05-21T16:32:22.724Z,25.69
2023-05-21T16:34:50.071Z,25.64
2023-05-21T16:37:17.234Z,25.63
2023-05-21T16:39:44.223Z,25.84
2023-05-21T16:42:20.880Z,25.97
2023-05-21T16:45:00.285Z,26.10
2023-05-21T16:47:28.821Z,26.18
2023-05-21T16:50:02.802Z,26.28
2023-05-21T16:52:30.658Z,26.30
2023-05-21T16:54:57.829Z,26.34
2023-05-21T16:57:24.996Z,26.37
2023-05-21T16:59:56.650Z,26.39
2023-05-21T17:02:24.159Z,26.41
2023-05-21T17:04:51.553Z,26.41
2023-05-21T17:07:30.460Z,26.39
2023-05-21T17:09:57.456Z,26.33
2023-05-21T17:12:24.534Z,26.36
2023-05-21T17:14:56.372Z,26.32
2023-05-21T17:17:26.810Z,26.25
2023-05-21T17:20:02.033Z,26.21
2023-05-21T17:22:36.183Z,26.21
2023-05-21T17:25:15.369Z,26.20
2023-05-21T17:27:42.299Z,26.20
2023-05-21T17:30:16.869Z,26.12
2023-05-21T17:32:47.018Z,26.11
2023-05-21T17:35:15.772Z,26.01
2023-05-21T17:37:42.625Z,25.92
2023-05-21T17:40:11.393Z,25.82
2023-05-21T17:42:39.694Z,25.78
2023-05-21T17:45:10.157Z,25.69
2023-05-21T17:47:47.706Z,25.50
2023-05-21T17:50:20.895Z,25.45
2023-05-21T17:52:52.776Z,25.31
2023-05-21T17:55:23.345Z,25.26
2023-05-21T17:57:58.550Z,25.14
2023-05-21T18:00:45.146Z,25.02
2023-05-21T18:07:12.293Z,24.79
2023-05-21T18:09:39.430Z,24.71
2023-05-21T18:12:07.686Z,24.65
2023-05-21T18:14:37.749Z,24.65
2023-05-21T18:17:05.536Z,24.58
2023-05-21T18:19:34.253Z,24.47
2023-05-21T18:22:05.522Z,24.44
2023-05-21T18:24:37.859Z,24.34
2023-05-21T18:27:05.566Z,24.37
2023-05-21T18:29:34.823Z,24.34
2023-05-21T18:32:02.460Z,24.27
2023-05-21T18:34:29.506Z,24.22
2023-05-21T18:36:58.434Z,24.20
2023-05-21T18:39:25.344Z,24.16
2023-05-21T18:42:01.562Z,24.12
2023-05-21T18:44:32.724Z,24.08
2023-05-21T18:46:59.876Z,23.92
2023-05-21T18:49:26.828Z,23.80
2023-05-21T18:51:53.857Z,23.73
2023-05-21T18:54:22.936Z,23.55
2023-05-21T18:56:50.010Z,23.50
2023-05-21T18:59:16.993Z,23.46
2023-05-21T19:01:44.335Z,23.37
2023-05-21T19:04:14.455Z,23.25
2023-05-21T19:06:41.457Z,22.95
2023-05-21T19:09:08.745Z,22.79
2023-05-21T19:11:38.757Z,22.75
2023-05-21T19:14:06.112Z,22.71
2023-05-21T19:16:33.237Z,22.55
2023-05-21T19:19:00.524Z,22.38
2023-05-21T19:21:28.283Z,22.26
2023-05-21T19:24:21.065Z,22.17
2023-05-21T19:26:49.690Z,22.13
2023-05-21T19:29:17.562Z,22.04
2023-05-21T19:31:45.107Z,21.93
2023-05-21T19:34:12.524Z,21.89
2023-05-21T19:36:52.034Z,21.91
2023-05-21T19:39:30.659Z,21.99
2023-05-21T19:41:59.277Z,21.95
2023-05-21T19:44:26.680Z,21.87
2023-05-21T19:47:08.464Z,21.70
2023-05-21T19:49:39.130Z,21.60
2023-05-21T19:52:27.161Z,21.35
2023-05-21T19:55:00.892Z,21.14
2023-05-21T20:01:17.576Z,20.84
2023-05-21T20:03:45.147Z,20.69
2023-05-21T20:06:13.596Z,20.26
2023-05-21T20:08:40.637Z,20.23
2023-05-21T20:11:10.760Z,20.19
2023-05-21T20:14:04.653Z,20.22
2023-05-21T20:16:35.203Z,20.23
2023-05-21T20:19:03.329Z,20.16
2023-05-21T20:21:31.856Z,20.22
2023-05-21T20:23:59.120Z,19.80
2023-05-21T20:26:53.607Z,19.69
2023-05-21T20:29:23.664Z,19.45
2023-05-21T20:31:50.865Z,19.45
2023-05-21T20:35:08.280Z,18.93
2023-05-21T20:37:35.507Z,18.96
2023-05-21T20:40:02.704Z,18.90
2023-05-21T20:42:31.335Z,18.83
2023-05-21T20:44:59.954Z,18.89
2023-05-21T20:47:27.694Z,19.00
2023-05-21T20:49:55.611Z,19.07
2023-05-21T20:52:23.694Z,19.22
2023-05-21T20:54:51.062Z,19.31
2023-05-21T20:57:17.958Z,19.36
2023-05-21T20:59:44.791Z,19.39
2023-05-21T21:02:13.270Z,19.40
2023-05-21T21:04:40.250Z,19.21
2023-05-21T21:07:07.316Z,19.05
2023-05-21T21:09:34.413Z,18.96
2023-05-21T21:12:06.156Z,18.88
2023-05-21T21:14:38.454Z,18.85
2023-05-21T21:17:05.530Z,18.86
2023-05-21T21:19:33.782Z,18.76
2023-05-21T21:22:01.169Z,18.79
2023-05-21T21:24:28.034Z,18.78
2023-05-21T21:26:54.979Z,18.79
2023-05-21T21:29:21.854Z,18.87
2023-05-21T21:31:48.969Z,18.94
2023-05-21T21:34:16.044Z,18.97
2023-05-21T21:36:44.350Z,18.98
2023-05-21T21:39:11.507Z,19.01
2023-05-21T21:41:38.458Z,19.05
2023-05-21T21:44:05.407Z,18.96
2023-05-21T21:46:32.678Z,18.65
2023-05-21T21:48:59.693Z,18.42
2023-05-21T21:51:26.912Z,18.26
2023-05-21T21:53:55.181Z,18.28
2023-05-21T21:56:22.123Z,18.30
2023-05-21T21:58:49.118Z,18.24
2023-05-21T22:01:16.133Z,18.16
2023-05-21T22:03:43.350Z,18.06
2023-05-21T22:06:10.261Z,17.95
2023-05-21T22:08:37.181Z,17.86
2023-05-21T22:11:05.932Z,17.74
2023-05-21T22:13:32.785Z,17.60
2023-05-21T22:16:00.081Z,17.69
2023-05-21T22:18:39.362Z,17.68
2023-05-21T22:21:08.336Z,17.72
2023-05-21T22:23:35.668Z,17.74
2023-05-21T22:26:02.650Z,17.71
2023-05-21T22:28:31.155Z,17.66
2023-05-21T22:31:19.497Z,17.50
2023-05-21T22:33:46.545Z,17.19
2023-05-21T22:36:13.518Z,17.08
2023-05-21T22:38:40.562Z,17.13
2023-05-21T22:41:07.503Z,17.16
2023-05-21T22:43:37.295Z,17.17
2023-05-21T22:46:04.267Z,17.21
2023-05-21T22:48:31.214Z,17.25
2023-05-21T22:50:58.310Z,17.35
2023-05-21T22:53:25.810Z,17.43
2023-05-21T22:55:52.859Z,17.50
2023-05-21T22:58:19.733Z,17.41
2023-05-21T23:00:48.253Z,17.37
2023-05-21T23:03:15.358Z,17.30
2023-05-21T23:05:42.418Z,17.19
2023-05-21T23:08:09.494Z,17.05
2023-05-21T23:10:36.439Z,16.98
2023-05-21T23:13:03.637Z,16.84
2023-05-21T23:15:30.480Z,16.84
2023-05-21T23:17:58.696Z,16.89
2023-05-21T23:20:25.920Z,16.84
2023-05-21T23:22:52.804Z,16.83
2023-05-21T23:25:19.684Z,16.83
2023-05-21T23:27:46.774Z,16.89
2023-05-21T23:30:14.031Z,16.85
2023-05-21T23:32:41.183Z,16.86
2023-05-21T23:35:10.230Z,16.81
2023-05-21T23:37:37.103Z,16.79
2023-05-21T23:40:05.176Z,16.65
2023-05-21T23:42:32.085Z,16.59
2023-05-21T23:44:59.587Z,16.56
2023-05-21T23:47:26.544Z,16.51
2023-05-21T23:49:53.495Z,16.49
2023-05-21T23:52:22.048Z,16.51
2023-05-21T23:54:49.180Z,16.59
2023-05-21T23:57:16.136Z,16.57
2023-05-21T23:59:43.644Z,16.45
